sensor_id;sensor_type;location;lat;lon;timestamp;pressure;altitude;pressure_sealevel;temperature
23208;BMP180;11773;52.570;13.052;2023-01-05T00:00:09;100408.00;;;15.60
23208;BMP180;11773;52.570;13.052;2023-01-05T00:02:39;100405.00;;;15.60
23208;BMP180;11773;52.570;13.052;2023-01-05T00:05:09;100404.00;;;15.60
23208;BMP180;11773;52.570;13.052;2023-01-05T00:07:38;100407.00;;;15.60
23208;BMP180;11773;52.570;13.052;2023-01-05T00:10:08;100398.00;;;15.50
23208;BMP180;11773;52.570;13.052;2023-01-05T00:12:39;100415.00;;;15.50
23208;BMP180;11773;52.570;13.052;2023-01-05T00:15:27;100412.00;;;15.50
23208;BMP180;11773;52.570;13.052;2023-01-05T00:18:15;100411.00;;;15.40
23208;BMP180;11773;52.570;13.052;2023-01-05T00:20:54;100413.00;;;15.40
23208;BMP180;11773;52.570;13.052;2023-01-05T00:23:43;100411.00;;;15.40
23208;BMP180;11773;52.570;13.052;2023-01-05T00:26:12;100418.00;;;15.40
23208;BMP180;11773;52.570;13.052;2023-01-05T00:28:42;100422.00;;;15.40
23208;BMP180;11773;52.570;13.052;2023-01-05T00:31:11;100421.00;;;15.40
23208;BMP180;11773;52.570;13.052;2023-01-05T00:33:41;100418.00;;;15.40
23208;BMP180;11773;52.570;13.052;2023-01-05T00:36:11;100415.00;;;15.40
23208;BMP180;11773;52.570;13.052;2023-01-05T00:38:40;100407.00;;;15.40
23208;BMP180;11773;52.570;13.052;2023-01-05T00:41:09;100421.00;;;15.50
23208;BMP180;11773;52.570;13.052;2023-01-05T00:43:39;100405.00;;;15.50
23208;BMP180;11773;52.570;13.052;2023-01-05T00:46:08;100410.00;;;15.50
23208;BMP180;11773;52.570;13.052;2023-01-05T00:48:38;100407.00;;;15.50
23208;BMP180;11773;52.570;13.052;2023-01-05T00:51:07;100407.00;;;15.50
23208;BMP180;11773;52.570;13.052;2023-01-05T00:53:37;100420.00;;;15.50
23208;BMP180;11773;52.570;13.052;2023-01-05T00:56:06;100401.00;;;15.50
23208;BMP180;11773;52.570;13.052;2023-01-05T00:58:36;100405.00;;;15.50
23208;BMP180;11773;52.570;13.052;2023-01-05T01:01:12;100410.00;;;15.50
23208;BMP180;11773;52.570;13.052;2023-01-05T01:03:42;100400.00;;;15.50
23208;BMP180;11773;52.570;13.052;2023-01-05T01:06:13;100423.00;;;15.50
23208;BMP180;11773;52.570;13.052;2023-01-05T01:08:43;100409.00;;;15.50
23208;BMP180;11773;52.570;13.052;2023-01-05T01:11:12;100414.00;;;15.50
23208;BMP180;11773;52.570;13.052;2023-01-05T01:13:46;100412.00;;;15.50
23208;BMP180;11773;52.570;13.052;2023-01-05T01:16:16;100425.00;;;15.50
23208;BMP180;11773;52.570;13.052;2023-01-05T01:18:45;100420.00;;;15.50
23208;BMP180;11773;52.570;13.052;2023-01-05T01:21:15;100414.00;;;15.50
23208;BMP180;11773;52.570;13.052;2023-01-05T01:23:45;100430.00;;;15.60
23208;BMP180;11773;52.570;13.052;2023-01-05T01:26:14;100408.00;;;15.50
23208;BMP180;11773;52.570;13.052;2023-01-05T01:28:48;100419.00;;;15.50
23208;BMP180;11773;52.570;13.052;2023-01-05T01:31:17;100421.00;;;15.50
23208;BMP180;11773;52.570;13.052;2023-01-05T01:33:47;100427.00;;;15.50
23208;BMP180;11773;52.570;13.052;2023-01-05T01:36:17;100419.00;;;15.50
23208;BMP180;11773;52.570;13.052;2023-01-05T01:38:46;100416.00;;;15.50
23208;BMP180;11773;52.570;13.052;2023-01-05T01:41:15;100421.00;;;15.50
23208;BMP180;11773;52.570;13.052;2023-01-05T01:43:50;100434.00;;;15.50
23208;BMP180;11773;52.570;13.052;2023-01-05T01:46:22;100444.00;;;15.50
23208;BMP180;11773;52.570;13.052;2023-01-05T01:48:59;100426.00;;;15.50
23208;BMP180;11773;52.570;13.052;2023-01-05T01:51:44;100430.00;;;15.50
23208;BMP180;11773;52.570;13.052;2023-01-05T01:54:17;100427.00;;;15.50
23208;BMP180;11773;52.570;13.052;2023-01-05T01:56:53;100435.00;;;15.50
23208;BMP180;11773;52.570;13.052;2023-01-05T01:59:24;100432.00;;;15.50
23208;BMP180;11773;52.570;13.052;2023-01-05T02:01:58;100428.00;;;15.50
23208;BMP180;11773;52.570;13.052;2023-01-05T02:04:31;100424.00;;;15.50
23208;BMP180;11773;52.570;13.052;2023-01-05T02:07:02;100425.00;;;15.50
23208;BMP180;11773;52.570;13.052;2023-01-05T02:09:32;100421.00;;;15.50
23208;BMP180;11773;52.570;13.052;2023-01-05T02:12:15;100416.00;;;15.50
23208;BMP180;11773;52.570;13.052;2023-01-05T02:18:17;100420.00;;;15.50
23208;BMP180;11773;52.570;13.052;2023-01-05T02:21:04;100414.00;;;15.50
23208;BMP180;11773;52.570;13.052;2023-01-05T02:23:57;100407.00;;;15.40
23208;BMP180;11773;52.570;13.052;2023-01-05T02:26:51;100411.00;;;15.40
23208;BMP180;11773;52.570;13.052;2023-01-05T02:32:28;100416.00;;;15.40
23208;BMP180;11773;52.570;13.052;2023-01-05T02:35:22;100407.00;;;15.40
23208;BMP180;11773;52.570;13.052;2023-01-05T02:40:48;100414.00;;;15.40
23208;BMP180;11773;52.570;13.052;2023-01-05T02:43:20;100415.00;;;15.40
23208;BMP180;11773;52.570;13.052;2023-01-05T02:45:49;100416.00;;;15.40
23208;BMP180;11773;52.570;13.052;2023-01-05T02:48:19;100417.00;;;15.40
23208;BMP180;11773;52.570;13.052;2023-01-05T02:51:01;100411.00;;;15.40
23208;BMP180;11773;52.570;13.052;2023-01-05T02:53:39;100416.00;;;15.40
23208;BMP180;11773;52.570;13.052;2023-01-05T02:56:22;100413.00;;;15.40
23208;BMP180;11773;52.570;13.052;2023-01-05T02:58:58;100415.00;;;15.40
23208;BMP180;11773;52.570;13.052;2023-01-05T03:01:43;100410.00;;;15.40
23208;BMP180;11773;52.570;13.052;2023-01-05T03:04:41;100419.00;;;15.50
23208;BMP180;11773;52.570;13.052;2023-01-05T03:06:58;100413.00;;;15.50
23208;BMP180;11773;52.570;13.052;2023-01-05T03:09:32;100414.00;;;15.50
23208;BMP180;11773;52.570;13.052;2023-01-05T03:15:26;100408.00;;;15.40
23208;BMP180;11773;52.570;13.052;2023-01-05T03:17:57;100417.00;;;15.40
23208;BMP180;11773;52.570;13.052;2023-01-05T03:20:30;100403.00;;;15.40
23208;BMP180;11773;52.570;13.052;2023-01-05T03:23:04;100403.00;;;15.40
23208;BMP180;11773;52.570;13.052;2023-01-05T03:25:52;100405.00;;;15.40
23208;BMP180;11773;52.570;13.052;2023-01-05T03:28:50;100397.00;;;15.40
23208;BMP180;11773;52.570;13.052;2023-01-05T03:31:56;100410.00;;;15.40
23208;BMP180;11773;52.570;13.052;2023-01-05T03:34:49;100399.00;;;15.30
23208;BMP180;11773;52.570;13.052;2023-01-05T03:37:42;100399.00;;;15.30
23208;BMP180;11773;52.570;13.052;2023-01-05T03:40:20;100406.00;;;15.40
23208;BMP180;11773;52.570;13.052;2023-01-05T03:42:50;100404.00;;;15.40
23208;BMP180;11773;52.570;13.052;2023-01-05T03:45:22;100402.00;;;15.40
23208;BMP180;11773;52.570;13.052;2023-01-05T03:47:52;100412.00;;;15.50
23208;BMP180;11773;52.570;13.052;2023-01-05T03:50:23;100427.00;;;15.50
23208;BMP180;11773;52.570;13.052;2023-01-05T03:52:52;100421.00;;;15.50
23208;BMP180;11773;52.570;13.052;2023-01-05T03:55:22;100420.00;;;15.50
23208;BMP180;11773;52.570;13.052;2023-01-05T03:57:52;100419.00;;;15.50
23208;BMP180;11773;52.570;13.052;2023-01-05T04:00:22;100441.00;;;15.50
23208;BMP180;11773;52.570;13.052;2023-01-05T04:02:53;100436.00;;;15.50
23208;BMP180;11773;52.570;13.052;2023-01-05T04:05:22;100451.00;;;15.50
23208;BMP180;11773;52.570;13.052;2023-01-05T04:07:52;100450.00;;;15.50
23208;BMP180;11773;52.570;13.052;2023-01-05T04:10:21;100453.00;;;15.50
23208;BMP180;11773;52.570;13.052;2023-01-05T04:12:51;100439.00;;;15.50
23208;BMP180;11773;52.570;13.052;2023-01-05T04:15:20;100435.00;;;15.50
23208;BMP180;11773;52.570;13.052;2023-01-05T04:17:50;100446.00;;;15.50
23208;BMP180;11773;52.570;13.052;2023-01-05T04:20:19;100451.00;;;15.50
23208;BMP180;11773;52.570;13.052;2023-01-05T04:22:49;100449.00;;;15.50
23208;BMP180;11773;52.570;13.052;2023-01-05T04:25:19;100441.00;;;15.50
23208;BMP180;11773;52.570;13.052;2023-01-05T04:27:48;100449.00;;;15.50
23208;BMP180;11773;52.570;13.052;2023-01-05T04:30:18;100450.00;;;15.50
23208;BMP180;11773;52.570;13.052;2023-01-05T04:32:48;100461.00;;;15.50
23208;BMP180;11773;52.570;13.052;2023-01-05T04:35:18;100454.00;;;15.50
23208;BMP180;11773;52.570;13.052;2023-01-05T04:37:47;100453.00;;;15.50
23208;BMP180;11773;52.570;13.052;2023-01-05T04:40:17;100471.00;;;15.50
23208;BMP180;11773;52.570;13.052;2023-01-05T04:42:47;100461.00;;;15.50
23208;BMP180;11773;52.570;13.052;2023-01-05T04:45:17;100463.00;;;15.50
23208;BMP180;11773;52.570;13.052;2023-01-05T04:47:46;100469.00;;;15.50
23208;BMP180;11773;52.570;13.052;2023-01-05T04:50:17;100470.00;;;15.50
23208;BMP180;11773;52.570;13.052;2023-01-05T04:52:47;100468.00;;;15.40
23208;BMP180;11773;52.570;13.052;2023-01-05T04:55:16;100466.00;;;15.40
23208;BMP180;11773;52.570;13.052;2023-01-05T04:57:46;100486.00;;;15.40
23208;BMP180;11773;52.570;13.052;2023-01-05T05:00:15;100478.00;;;15.40
23208;BMP180;11773;52.570;13.052;2023-01-05T05:02:45;100493.00;;;15.40
23208;BMP180;11773;52.570;13.052;2023-01-05T05:05:15;100493.00;;;15.40
23208;BMP180;11773;52.570;13.052;2023-01-05T05:07:44;100486.00;;;15.40
23208;BMP180;11773;52.570;13.052;2023-01-05T05:10:14;100480.00;;;15.40
23208;BMP180;11773;52.570;13.052;2023-01-05T05:12:45;100497.00;;;15.40
23208;BMP180;11773;52.570;13.052;2023-01-05T05:15:15;100486.00;;;15.40
23208;BMP180;11773;52.570;13.052;2023-01-05T05:17:45;100488.00;;;15.40
23208;BMP180;11773;52.570;13.052;2023-01-05T05:20:15;100478.00;;;15.40
23208;BMP180;11773;52.570;13.052;2023-01-05T05:22:45;100492.00;;;15.40
23208;BMP180;11773;52.570;13.052;2023-01-05T05:25:14;100492.00;;;15.40
23208;BMP180;11773;52.570;13.052;2023-01-05T05:27:44;100494.00;;;15.40
23208;BMP180;11773;52.570;13.052;2023-01-05T05:30:13;100487.00;;;15.40
23208;BMP180;11773;52.570;13.052;2023-01-05T05:32:43;100487.00;;;15.30
23208;BMP180;11773;52.570;13.052;2023-01-05T05:35:12;100481.00;;;15.30
23208;BMP180;11773;52.570;13.052;2023-01-05T05:37:42;100474.00;;;15.30
23208;BMP180;11773;52.570;13.052;2023-01-05T05:40:13;100474.00;;;15.40
23208;BMP180;11773;52.570;13.052;2023-01-05T05:42:42;100484.00;;;15.30
23208;BMP180;11773;52.570;13.052;2023-01-05T05:45:11;100482.00;;;15.30
23208;BMP180;11773;52.570;13.052;2023-01-05T05:47:42;100501.00;;;15.30
23208;BMP180;11773;52.570;13.052;2023-01-05T05:50:12;100512.00;;;15.30
23208;BMP180;11773;52.570;13.052;2023-01-05T05:52:41;100522.00;;;15.30
23208;BMP180;11773;52.570;13.052;2023-01-05T05:55:10;100520.00;;;15.30
23208;BMP180;11773;52.570;13.052;2023-01-05T05:57:40;100516.00;;;15.30
23208;BMP180;11773;52.570;13.052;2023-01-05T06:00:10;100530.00;;;15.30
23208;BMP180;11773;52.570;13.052;2023-01-05T06:02:40;100535.00;;;15.20
23208;BMP180;11773;52.570;13.052;2023-01-05T06:05:10;100537.00;;;15.20
23208;BMP180;11773;52.570;13.052;2023-01-05T06:07:39;100532.00;;;15.20
23208;BMP180;11773;52.570;13.052;2023-01-05T06:10:09;100542.00;;;15.20
23208;BMP180;11773;52.570;13.052;2023-01-05T06:12:38;100533.00;;;15.20
23208;BMP180;11773;52.570;13.052;2023-01-05T06:15:09;100550.00;;;15.20
23208;BMP180;11773;52.570;13.052;2023-01-05T06:17:38;100547.00;;;15.20
23208;BMP180;11773;52.570;13.052;2023-01-05T06:20:08;100531.00;;;15.10
23208;BMP180;11773;52.570;13.052;2023-01-05T06:22:38;100534.00;;;15.10
23208;BMP180;11773;52.570;13.052;2023-01-05T06:25:08;100535.00;;;15.10
23208;BMP180;11773;52.570;13.052;2023-01-05T06:27:38;100542.00;;;15.10
23208;BMP180;11773;52.570;13.052;2023-01-05T06:30:08;100548.00;;;15.10
23208;BMP180;11773;52.570;13.052;2023-01-05T06:32:37;100553.00;;;15.10
23208;BMP180;11773;52.570;13.052;2023-01-05T06:35:07;100571.00;;;15.00
23208;BMP180;11773;52.570;13.052;2023-01-05T06:37:37;100579.00;;;15.00
23208;BMP180;11773;52.570;13.052;2023-01-05T06:40:07;100572.00;;;15.00
23208;BMP180;11773;52.570;13.052;2023-01-05T06:42:39;100565.00;;;15.00
23208;BMP180;11773;52.570;13.052;2023-01-05T06:45:12;100560.00;;;15.00
23208;BMP180;11773;52.570;13.052;2023-01-05T06:47:43;100564.00;;;15.00
23208;BMP180;11773;52.570;13.052;2023-01-05T06:50:13;100562.00;;;15.00
23208;BMP180;11773;52.570;13.052;2023-01-05T06:52:42;100588.00;;;14.90
23208;BMP180;11773;52.570;13.052;2023-01-05T06:55:12;100582.00;;;14.90
23208;BMP180;11773;52.570;13.052;2023-01-05T06:57:42;100582.00;;;14.90
23208;BMP180;11773;52.570;13.052;2023-01-05T07:00:12;100609.00;;;14.90
23208;BMP180;11773;52.570;13.052;2023-01-05T07:02:42;100588.00;;;14.90
23208;BMP180;11773;52.570;13.052;2023-01-05T07:05:12;100599.00;;;14.80
23208;BMP180;11773;52.570;13.052;2023-01-05T07:07:41;100593.00;;;14.80
23208;BMP180;11773;52.570;13.052;2023-01-05T07:10:11;100597.00;;;14.80
23208;BMP180;11773;52.570;13.052;2023-01-05T07:12:40;100606.00;;;14.80
23208;BMP180;11773;52.570;13.052;2023-01-05T07:15:10;100607.00;;;14.80
23208;BMP180;11773;52.570;13.052;2023-01-05T07:17:40;100597.00;;;14.80
23208;BMP180;11773;52.570;13.052;2023-01-05T07:20:09;100602.00;;;14.80
23208;BMP180;11773;52.570;13.052;2023-01-05T07:22:39;100602.00;;;14.80
23208;BMP180;11773;52.570;13.052;2023-01-05T07:25:08;100606.00;;;14.80
23208;BMP180;11773;52.570;13.052;2023-01-05T07:27:38;100602.00;;;14.80
23208;BMP180;11773;52.570;13.052;2023-01-05T07:30:09;100622.00;;;14.80
23208;BMP180;11773;52.570;13.052;2023-01-05T07:32:39;100616.00;;;14.70
23208;BMP180;11773;52.570;13.052;2023-01-05T07:35:08;100634.00;;;14.70
23208;BMP180;11773;52.570;13.052;2023-01-05T07:37:38;100631.00;;;14.70
23208;BMP180;11773;52.570;13.052;2023-01-05T07:40:08;100635.00;;;14.70
23208;BMP180;11773;52.570;13.052;2023-01-05T07:42:38;100646.00;;;14.60
23208;BMP180;11773;52.570;13.052;2023-01-05T07:45:08;100652.00;;;14.60
23208;BMP180;11773;52.570;13.052;2023-01-05T07:47:38;100662.00;;;14.60
23208;BMP180;11773;52.570;13.052;2023-01-05T07:50:08;100669.00;;;14.60
23208;BMP180;11773;52.570;13.052;2023-01-05T07:52:38;100675.00;;;14.60
23208;BMP180;11773;52.570;13.052;2023-01-05T07:55:08;100662.00;;;14.60
23208;BMP180;11773;52.570;13.052;2023-01-05T07:57:37;100664.00;;;14.60
23208;BMP180;11773;52.570;13.052;2023-01-05T08:00:08;100665.00;;;14.60
23208;BMP180;11773;52.570;13.052;2023-01-05T08:02:38;100682.00;;;14.60
23208;BMP180;11773;52.570;13.052;2023-01-05T08:05:08;100693.00;;;14.60
23208;BMP180;11773;52.570;13.052;2023-01-05T08:07:38;100699.00;;;14.60
23208;BMP180;11773;52.570;13.052;2023-01-05T08:10:09;100702.00;;;14.60
23208;BMP180;11773;52.570;13.052;2023-01-05T08:13:05;100701.00;;;14.50
23208;BMP180;11773;52.570;13.052;2023-01-05T08:15:54;100694.00;;;14.50
23208;BMP180;11773;52.570;13.052;2023-01-05T08:18:24;100704.00;;;14.50
23208;BMP180;11773;52.570;13.052;2023-01-05T08:20:58;100709.00;;;14.50
23208;BMP180;11773;52.570;13.052;2023-01-05T08:23:28;100724.00;;;14.60
23208;BMP180;11773;52.570;13.052;2023-01-05T08:26:07;100709.00;;;14.60
23208;BMP180;11773;52.570;13.052;2023-01-05T08:28:35;100712.00;;;14.60
23208;BMP180;11773;52.570;13.052;2023-01-05T08:31:11;100722.00;;;14.60
23208;BMP180;11773;52.570;13.052;2023-01-05T08:33:41;100723.00;;;14.60
23208;BMP180;11773;52.570;13.052;2023-01-05T08:36:15;100717.00;;;14.60
23208;BMP180;11773;52.570;13.052;2023-01-05T08:38:50;100719.00;;;14.60
23208;BMP180;11773;52.570;13.052;2023-01-05T08:41:31;100733.00;;;14.60
23208;BMP180;11773;52.570;13.052;2023-01-05T08:43:59;100727.00;;;14.60
23208;BMP180;11773;52.570;13.052;2023-01-05T08:46:33;100728.00;;;14.60
23208;BMP180;11773;52.570;13.052;2023-01-05T08:49:06;100729.00;;;14.60
23208;BMP180;11773;52.570;13.052;2023-01-05T08:51:37;100737.00;;;14.60
23208;BMP180;11773;52.570;13.052;2023-01-05T08:54:06;100754.00;;;14.60
23208;BMP180;11773;52.570;13.052;2023-01-05T08:56:36;100741.00;;;14.70
23208;BMP180;11773;52.570;13.052;2023-01-05T08:59:09;100751.00;;;14.70
23208;BMP180;11773;52.570;13.052;2023-01-05T09:01:38;100748.00;;;14.70
23208;BMP180;11773;52.570;13.052;2023-01-05T09:04:07;100748.00;;;14.70
23208;BMP180;11773;52.570;13.052;2023-01-05T09:06:37;100771.00;;;14.80
23208;BMP180;11773;52.570;13.052;2023-01-05T09:09:07;100766.00;;;14.80
23208;BMP180;11773;52.570;13.052;2023-01-05T09:11:36;100760.00;;;14.80
23208;BMP180;11773;52.570;13.052;2023-01-05T09:14:06;100774.00;;;14.80
23208;BMP180;11773;52.570;13.052;2023-01-05T09:16:35;100778.00;;;14.80
23208;BMP180;11773;52.570;13.052;2023-01-05T09:19:07;100763.00;;;14.80
23208;BMP180;11773;52.570;13.052;2023-01-05T09:21:37;100767.00;;;14.90
23208;BMP180;11773;52.570;13.052;2023-01-05T09:24:09;100776.00;;;14.90
23208;BMP180;11773;52.570;13.052;2023-01-05T09:26:43;100783.00;;;14.90
23208;BMP180;11773;52.570;13.052;2023-01-05T09:29:13;100800.00;;;14.90
23208;BMP180;11773;52.570;13.052;2023-01-05T09:31:43;100797.00;;;14.90
23208;BMP180;11773;52.570;13.052;2023-01-05T09:34:13;100799.00;;;14.90
23208;BMP180;11773;52.570;13.052;2023-01-05T09:36:42;100803.00;;;14.90
23208;BMP180;11773;52.570;13.052;2023-01-05T09:39:12;100809.00;;;14.90
23208;BMP180;11773;52.570;13.052;2023-01-05T09:41:55;100825.00;;;14.90
23208;BMP180;11773;52.570;13.052;2023-01-05T09:44:39;100835.00;;;14.90
23208;BMP180;11773;52.570;13.052;2023-01-05T09:49:49;100835.00;;;14.80
23208;BMP180;11773;52.570;13.052;2023-01-05T09:52:21;100834.00;;;14.80
23208;BMP180;11773;52.570;13.052;2023-01-05T09:54:50;100847.00;;;14.80
23208;BMP180;11773;52.570;13.052;2023-01-05T09:57:28;100844.00;;;14.80
23208;BMP180;11773;52.570;13.052;2023-01-05T10:00:04;100844.00;;;14.80
23208;BMP180;11773;52.570;13.052;2023-01-05T10:02:45;100855.00;;;14.80
23208;BMP180;11773;52.570;13.052;2023-01-05T10:05:15;100867.00;;;14.70
23208;BMP180;11773;52.570;13.052;2023-01-05T10:08:02;100859.00;;;14.70
23208;BMP180;11773;52.570;13.052;2023-01-05T10:10:55;100834.00;;;14.70
23208;BMP180;11773;52.570;13.052;2023-01-05T10:13:44;100846.00;;;14.60
23208;BMP180;11773;52.570;13.052;2023-01-05T10:16:16;100832.00;;;14.60
23208;BMP180;11773;52.570;13.052;2023-01-05T10:18:46;100846.00;;;14.60
23208;BMP180;11773;52.570;13.052;2023-01-05T10:21:45;100844.00;;;14.60
23208;BMP180;11773;52.570;13.052;2023-01-05T10:27:31;100854.00;;;14.50
23208;BMP180;11773;52.570;13.052;2023-01-05T10:29:48;100884.00;;;14.60
23208;BMP180;11773;52.570;13.052;2023-01-05T10:32:37;100875.00;;;14.60
23208;BMP180;11773;52.570;13.052;2023-01-05T10:38:26;100877.00;;;14.50
23208;BMP180;11773;52.570;13.052;2023-01-05T10:41:08;100873.00;;;14.60
23208;BMP180;11773;52.570;13.052;2023-01-05T10:46:38;100887.00;;;14.50
23208;BMP180;11773;52.570;13.052;2023-01-05T10:49:17;100877.00;;;14.50
23208;BMP180;11773;52.570;13.052;2023-01-05T10:51:48;100873.00;;;14.60
23208;BMP180;11773;52.570;13.052;2023-01-05T10:54:37;100876.00;;;14.60
23208;BMP180;11773;52.570;13.052;2023-01-05T10:57:32;100893.00;;;14.60
23208;BMP180;11773;52.570;13.052;2023-01-05T11:00:15;100909.00;;;14.60
23208;BMP180;11773;52.570;13.052;2023-01-05T11:05:43;100896.00;;;14.60
23208;BMP180;11773;52.570;13.052;2023-01-05T11:08:17;100915.00;;;14.60
23208;BMP180;11773;52.570;13.052;2023-01-05T11:10:59;100910.00;;;14.60
23208;BMP180;11773;52.570;13.052;2023-01-05T11:13:39;100916.00;;;14.60
23208;BMP180;11773;52.570;13.052;2023-01-05T11:16:24;100921.00;;;14.60
23208;BMP180;11773;52.570;13.052;2023-01-05T11:18:56;100920.00;;;14.60
23208;BMP180;11773;52.570;13.052;2023-01-05T11:24:28;100924.00;;;14.60
23208;BMP180;11773;52.570;13.052;2023-01-05T11:27:12;100929.00;;;14.60
23208;BMP180;11773;52.570;13.052;2023-01-05T11:29:33;100935.00;;;14.60
23208;BMP180;11773;52.570;13.052;2023-01-05T11:32:09;100936.00;;;14.70
23208;BMP180;11773;52.570;13.052;2023-01-05T11:34:49;100938.00;;;14.70
23208;BMP180;11773;52.570;13.052;2023-01-05T11:37:26;100940.00;;;14.70
23208;BMP180;11773;52.570;13.052;2023-01-05T11:40:02;100931.00;;;14.70
23208;BMP180;11773;52.570;13.052;2023-01-05T11:42:36;100963.00;;;14.70
23208;BMP180;11773;52.570;13.052;2023-01-05T11:45:27;100966.00;;;14.70
23208;BMP180;11773;52.570;13.052;2023-01-05T11:48:01;100964.00;;;14.70
23208;BMP180;11773;52.570;13.052;2023-01-05T11:50:30;100966.00;;;14.70
23208;BMP180;11773;52.570;13.052;2023-01-05T11:53:02;100963.00;;;14.70
23208;BMP180;11773;52.570;13.052;2023-01-05T11:55:38;100989.00;;;14.70
23208;BMP180;11773;52.570;13.052;2023-01-05T11:58:16;100987.00;;;14.70
23208;BMP180;11773;52.570;13.052;2023-01-05T12:01:20;100991.00;;;14.70
23208;BMP180;11773;52.570;13.052;2023-01-05T12:04:21;100987.00;;;14.70
23208;BMP180;11773;52.570;13.052;2023-01-05T12:07:08;100993.00;;;14.70
23208;BMP180;11773;52.570;13.052;2023-01-05T12:13:12;100999.00;;;14.60
23208;BMP180;11773;52.570;13.052;2023-01-05T12:18:59;101011.00;;;14.60
23208;BMP180;11773;52.570;13.052;2023-01-05T12:21:38;101005.00;;;14.60
23208;BMP180;11773;52.570;13.052;2023-01-05T12:30:49;101027.00;;;14.60
23208;BMP180;11773;52.570;13.052;2023-01-05T12:33:23;101029.00;;;14.60
23208;BMP180;11773;52.570;13.052;2023-01-05T12:41:59;101048.00;;;14.60
23208;BMP180;11773;52.570;13.052;2023-01-05T12:44:53;101048.00;;;14.60
23208;BMP180;11773;52.570;13.052;2023-01-05T12:47:48;101050.00;;;14.60
23208;BMP180;11773;52.570;13.052;2023-01-05T12:50:34;101062.00;;;14.60
23208;BMP180;11773;52.570;13.052;2023-01-05T12:55:57;101057.00;;;14.60
23208;BMP180;11773;52.570;13.052;2023-01-05T12:58:39;101068.00;;;14.60
23208;BMP180;11773;52.570;13.052;2023-01-05T13:01:15;101064.00;;;14.60
23208;BMP180;11773;52.570;13.052;2023-01-05T13:03:57;101077.00;;;14.70
23208;BMP180;11773;52.570;13.052;2023-01-05T13:06:30;101058.00;;;14.70
23208;BMP180;11773;52.570;13.052;2023-01-05T13:09:14;101075.00;;;14.70
23208;BMP180;11773;52.570;13.052;2023-01-05T13:11:49;101078.00;;;14.70
23208;BMP180;11773;52.570;13.052;2023-01-05T13:14:23;101073.00;;;14.70
23208;BMP180;11773;52.570;13.052;2023-01-05T13:17:20;101087.00;;;14.70
23208;BMP180;11773;52.570;13.052;2023-01-05T13:19:53;101107.00;;;14.70
23208;BMP180;11773;52.570;13.052;2023-01-05T13:22:28;101096.00;;;14.70
23208;BMP180;11773;52.570;13.052;2023-01-05T13:25:18;101104.00;;;14.70
23208;BMP180;11773;52.570;13.052;2023-01-05T13:27:48;101116.00;;;14.70
23208;BMP180;11773;52.570;13.052;2023-01-05T13:30:33;101119.00;;;14.70
23208;BMP180;11773;52.570;13.052;2023-01-05T13:36:58;101138.00;;;14.70
23208;BMP180;11773;52.570;13.052;2023-01-05T13:39:51;101131.00;;;14.70
23208;BMP180;11773;52.570;13.052;2023-01-05T13:48:37;101148.00;;;14.60
23208;BMP180;11773;52.570;13.052;2023-01-05T13:54:09;101171.00;;;14.70
23208;BMP180;11773;52.570;13.052;2023-01-05T13:56:39;101182.00;;;14.70
23208;BMP180;11773;52.570;13.052;2023-01-05T13:59:25;101190.00;;;14.70
23208;BMP180;11773;52.570;13.052;2023-01-05T14:01:59;101194.00;;;14.70
23208;BMP180;11773;52.570;13.052;2023-01-05T14:04:32;101212.00;;;14.70
23208;BMP180;11773;52.570;13.052;2023-01-05T14:07:10;101203.00;;;14.80
23208;BMP180;11773;52.570;13.052;2023-01-05T14:09:45;101205.00;;;14.80
23208;BMP180;11773;52.570;13.052;2023-01-05T14:18:05;101217.00;;;14.70
23208;BMP180;11773;52.570;13.052;2023-01-05T14:20:47;101228.00;;;14.70
23208;BMP180;11773;52.570;13.052;2023-01-05T14:39:39;101283.00;;;14.60
23208;BMP180;11773;52.570;13.052;2023-01-05T14:45:03;101287.00;;;14.50
23208;BMP180;11773;52.570;13.052;2023-01-05T14:47:42;101289.00;;;14.50
23208;BMP180;11773;52.570;13.052;2023-01-05T14:50:34;101302.00;;;14.50
23208;BMP180;11773;52.570;13.052;2023-01-05T14:53:13;101291.00;;;14.50
23208;BMP180;11773;52.570;13.052;2023-01-05T15:01:29;101339.00;;;14.40
23208;BMP180;11773;52.570;13.052;2023-01-05T15:04:04;101350.00;;;14.30
23208;BMP180;11773;52.570;13.052;2023-01-05T15:07:04;101357.00;;;14.30
23208;BMP180;11773;52.570;13.052;2023-01-05T15:13:21;101356.00;;;14.20
23208;BMP180;11773;52.570;13.052;2023-01-05T15:16:14;101371.00;;;14.10
23208;BMP180;11773;52.570;13.052;2023-01-05T15:21:53;101383.00;;;14.10
23208;BMP180;11773;52.570;13.052;2023-01-05T15:24:52;101372.00;;;14.10
23208;BMP180;11773;52.570;13.052;2023-01-05T15:27:31;101381.00;;;14.00
23208;BMP180;11773;52.570;13.052;2023-01-05T15:33:41;101388.00;;;14.00
23208;BMP180;11773;52.570;13.052;2023-01-05T15:36:20;101395.00;;;14.00
23208;BMP180;11773;52.570;13.052;2023-01-05T15:38:46;101396.00;;;14.00
23208;BMP180;11773;52.570;13.052;2023-01-05T15:41:19;101396.00;;;14.00
23208;BMP180;11773;52.570;13.052;2023-01-05T15:43:50;101399.00;;;14.00
23208;BMP180;11773;52.570;13.052;2023-01-05T15:46:25;101415.00;;;14.00
23208;BMP180;11773;52.570;13.052;2023-01-05T15:48:54;101425.00;;;14.00
23208;BMP180;11773;52.570;13.052;2023-01-05T15:51:30;101413.00;;;14.00
23208;BMP180;11773;52.570;13.052;2023-01-05T15:54:03;101423.00;;;14.00
23208;BMP180;11773;52.570;13.052;2023-01-05T15:56:37;101432.00;;;14.00
23208;BMP180;11773;52.570;13.052;2023-01-05T15:59:38;101428.00;;;14.00
23208;BMP180;11773;52.570;13.052;2023-01-05T16:02:21;101432.00;;;13.90
23208;BMP180;11773;52.570;13.052;2023-01-05T16:04:47;101431.00;;;13.90
23208;BMP180;11773;52.570;13.052;2023-01-05T16:07:16;101446.00;;;13.90
23208;BMP180;11773;52.570;13.052;2023-01-05T16:09:46;101441.00;;;13.90